createdAt,value
2022-09-12T00:25:06.423Z,20.6
2022-09-12T01:00:06.790Z,20.5
2022-09-12T01:15:05.605Z,20.5
2022-09-12T01:30:05.358Z,20.5
2022-09-12T02:00:03.516Z,20.4
2022-09-12T02:15:04.494Z,20.4
2022-09-12T02:30:04.598Z,20.4
2022-09-12T03:00:04.386Z,20.4
2022-09-12T03:15:02.323Z,20.5
2022-09-12T03:30:06.537Z,20.6
2022-09-12T03:45:06.795Z,20.9
2022-09-12T04:00:06.584Z,21.3
2022-09-12T04:15:05.838Z,21.7
2022-09-12T04:30:02.611Z,22.1
2022-09-12T04:45:03.883Z,22.4
2022-09-12T05:00:02.361Z,22.6
2022-09-12T05:15:06.574Z,22.8
2022-09-12T05:30:04.856Z,22.9
2022-09-12T05:45:04.839Z,23
2022-09-12T06:00:06.905Z,22.9
2022-09-12T06:15:03.547Z,22.7
2022-09-12T06:30:05.681Z,22.6
2022-09-12T06:45:03.522Z,22.3
2022-09-12T07:05:05.348Z,22.2
2022-09-12T07:20:06.823Z,22.3
2022-09-12T07:35:03.658Z,22.3
2022-09-12T07:55:06.508Z,22.4
2022-09-12T08:10:05.751Z,22.6
2022-09-12T08:40:06.476Z,22.6
2022-09-12T08:55:05.450Z,22.6
2022-09-12T09:10:02.844Z,22.6
2022-09-12T09:25:05.532Z,22.6
2022-09-12T09:40:06.894Z,22.5
2022-09-12T09:55:02.568Z,22.4
2022-09-12T10:10:06.804Z,22.4
2022-09-12T10:30:03.418Z,22.3
2022-09-12T10:45:04.594Z,22.2
2022-09-12T11:15:05.575Z,22.1
2022-09-12T11:30:05.948Z,22.1
2022-09-12T11:45:06.663Z,22.1
2022-09-12T12:00:04.413Z,22
2022-09-12T12:15:02.350Z,22
2022-09-12T12:30:04.481Z,21.9
2022-09-12T12:45:06.462Z,21.9
2022-09-12T13:00:05.781Z,21.9
2022-09-12T13:15:02.584Z,21.9
2022-09-12T13:30:02.663Z,22
2022-09-12T13:45:04.998Z,22
2022-09-12T14:00:02.755Z,22.1
2022-09-12T14:15:05.818Z,22.1
2022-09-12T14:30:03.789Z,22.1
2022-09-12T14:45:06.407Z,22
2022-09-12T15:00:05.647Z,21.9
2022-09-12T15:15:04.652Z,21.8
2022-09-12T15:30:04.746Z,21.8
2022-09-12T15:45:05.840Z,21.7
2022-09-12T16:00:03.644Z,21.6
2022-09-12T16:20:02.452Z,21.6
2022-09-12T16:35:04.608Z,21.5
2022-09-12T17:05:04.878Z,21.5
2022-09-12T17:20:02.830Z,21.4
2022-09-12T17:35:05.560Z,21.4
2022-09-12T18:05:03.800Z,21.4
2022-09-12T18:20:02.926Z,21.4
2022-09-12T18:50:06.376Z,21.3
2022-09-12T19:20:04.583Z,21.3
2022-09-12T19:50:03.808Z,21.2
2022-09-12T21:05:06.926Z,21.1
2022-09-12T21:20:02.773Z,21.1
2022-09-12T21:35:03.902Z,21.1
2022-09-12T21:50:02.354Z,21.1
2022-09-12T22:20:05.432Z,21
2022-09-12T22:55:06.759Z,21
2022-09-12T23:25:05.862Z,21
2022-09-12T23:55:03.538Z,21
